sensor_id;sensor_type;location;lat;lon;timestamp;pressure;altitude;pressure_sealevel;temperature;humidity
60371;BME280;48550;40.588;49.684;2023-01-27T00:02:17;102864.50;;;4.68;100.00
60371;BME280;48550;40.588;49.684;2023-01-27T00:04:42;102869.28;;;4.74;100.00
60371;BME280;48550;40.588;49.684;2023-01-27T00:07:08;102856.66;;;4.76;100.00
60371;BME280;48550;40.588;49.684;2023-01-27T00:09:34;102856.38;;;4.79;100.00
60371;BME280;48550;40.588;49.684;2023-01-27T00:11:59;102851.63;;;4.83;100.00
60371;BME280;48550;40.588;49.684;2023-01-27T00:14:43;102853.16;;;4.85;100.00
60371;BME280;48550;40.588;49.684;2023-01-27T00:17:09;102854.00;;;4.86;100.00
60371;BME280;48550;40.588;49.684;2023-01-27T00:19:35;102847.09;;;4.93;100.00
60371;BME280;48550;40.588;49.684;2023-01-27T00:22:00;102849.41;;;4.68;100.00
60371;BME280;48550;40.588;49.684;2023-01-27T00:24:44;102855.56;;;4.50;100.00
60371;BME280;48550;40.588;49.684;2023-01-27T00:27:11;102843.53;;;4.55;100.00
60371;BME280;48550;40.588;49.684;2023-01-27T00:29:38;102848.28;;;4.61;100.00
60371;BME280;48550;40.588;49.684;2023-01-27T00:32:03;102842.25;;;4.69;100.00
60371;BME280;48550;40.588;49.684;2023-01-27T00:34:49;102847.28;;;4.43;100.00
60371;BME280;48550;40.588;49.684;2023-01-27T00:37:14;102852.75;;;4.32;100.00
60371;BME280;48550;40.588;49.684;2023-01-27T00:39:41;102842.94;;;4.42;100.00
60371;BME280;48550;40.588;49.684;2023-01-27T00:42:06;102830.50;;;4.52;100.00
60371;BME280;48550;40.588;49.684;2023-01-27T00:44:32;102829.81;;;4.60;100.00
60371;BME280;48550;40.588;49.684;2023-01-27T00:46:58;102821.41;;;4.64;100.00
60371;BME280;48550;40.588;49.684;2023-01-27T00:49:23;102828.66;;;4.82;100.00
60371;BME280;48550;40.588;49.684;2023-01-27T00:51:49;102830.34;;;4.73;100.00
60371;BME280;48550;40.588;49.684;2023-01-27T00:54:15;102822.66;;;4.70;100.00
60371;BME280;48550;40.588;49.684;2023-01-27T00:56:41;102822.63;;;4.79;100.00
60371;BME280;48550;40.588;49.684;2023-01-27T00:59:07;102825.69;;;4.85;100.00
60371;BME280;48550;40.588;49.684;2023-01-27T01:01:33;102815.91;;;4.75;100.00
60371;BME280;48550;40.588;49.684;2023-01-27T01:03:59;102805.97;;;4.77;100.00
60371;BME280;48550;40.588;49.684;2023-01-27T01:06:26;102813.94;;;4.87;100.00
60371;BME280;48550;40.588;49.684;2023-01-27T01:08:52;102802.72;;;4.93;100.00
60371;BME280;48550;40.588;49.684;2023-01-27T01:11:19;102801.03;;;4.92;100.00
60371;BME280;48550;40.588;49.684;2023-01-27T01:13:46;102796.44;;;4.85;100.00
60371;BME280;48550;40.588;49.684;2023-01-27T01:16:15;102801.81;;;4.65;100.00
60371;BME280;48550;40.588;49.684;2023-01-27T01:18:42;102805.59;;;4.63;100.00
60371;BME280;48550;40.588;49.684;2023-01-27T01:21:08;102811.59;;;4.65;100.00
60371;BME280;48550;40.588;49.684;2023-01-27T01:23:40;102803.63;;;4.65;100.00
60371;BME280;48550;40.588;49.684;2023-01-27T01:26:07;102803.78;;;4.63;100.00
60371;BME280;48550;40.588;49.684;2023-01-27T01:28:33;102806.16;;;4.66;100.00
60371;BME280;48550;40.588;49.684;2023-01-27T01:31:06;102817.34;;;4.60;100.00
60371;BME280;48550;40.588;49.684;2023-01-27T01:33:32;102816.91;;;4.36;100.00
60371;BME280;48550;40.588;49.684;2023-01-27T01:36:10;102815.09;;;4.27;100.00
60371;BME280;48550;40.588;49.684;2023-01-27T01:38:36;102815.38;;;4.24;100.00
60371;BME280;48550;40.588;49.684;2023-01-27T01:41:04;102814.53;;;4.23;100.00
60371;BME280;48550;40.588;49.684;2023-01-27T01:43:30;102808.66;;;4.39;100.00
60371;BME280;48550;40.588;49.684;2023-01-27T01:45:57;102817.75;;;4.27;100.00
60371;BME280;48550;40.588;49.684;2023-01-27T01:53:37;102809.38;;;4.22;100.00
60371;BME280;48550;40.588;49.684;2023-01-27T01:56:09;102821.81;;;4.21;100.00
60371;BME280;48550;40.588;49.684;2023-01-27T01:58:37;102812.16;;;4.10;100.00
60371;BME280;48550;40.588;49.684;2023-01-27T02:01:05;102812.03;;;4.12;100.00
60371;BME280;48550;40.588;49.684;2023-01-27T02:03:32;102812.59;;;4.06;100.00
60371;BME280;48550;40.588;49.684;2023-01-27T02:05:59;102822.50;;;4.04;100.00
60371;BME280;48550;40.588;49.684;2023-01-27T02:08:29;102823.63;;;3.92;100.00
60371;BME280;48550;40.588;49.684;2023-01-27T02:10:55;102823.16;;;3.77;100.00
60371;BME280;48550;40.588;49.684;2023-01-27T02:13:21;102825.56;;;3.80;100.00
60371;BME280;48550;40.588;49.684;2023-01-27T02:15:49;102824.16;;;3.86;100.00
60371;BME280;48550;40.588;49.684;2023-01-27T02:18:16;102829.63;;;3.94;100.00
60371;BME280;48550;40.588;49.684;2023-01-27T02:23:23;102831.47;;;4.12;100.00
60371;BME280;48550;40.588;49.684;2023-01-27T02:28:32;102833.44;;;4.10;100.00
60371;BME280;48550;40.588;49.684;2023-01-27T02:30:58;102831.75;;;4.09;100.00
60371;BME280;48550;40.588;49.684;2023-01-27T02:33:24;102833.00;;;4.15;100.00
60371;BME280;48550;40.588;49.684;2023-01-27T02:36:14;102835.66;;;4.34;100.00
60371;BME280;48550;40.588;49.684;2023-01-27T02:38:44;102838.06;;;4.37;100.00
60371;BME280;48550;40.588;49.684;2023-01-27T02:41:32;102837.91;;;4.39;100.00
60371;BME280;48550;40.588;49.684;2023-01-27T02:43:58;102839.59;;;4.40;100.00
60371;BME280;48550;40.588;49.684;2023-01-27T02:46:24;102840.75;;;4.47;100.00
60371;BME280;48550;40.588;49.684;2023-01-27T02:48:50;102850.66;;;4.55;100.00
60371;BME280;48550;40.588;49.684;2023-01-27T02:51:16;102843.94;;;4.51;100.00
60371;BME280;48550;40.588;49.684;2023-01-27T02:53:42;102853.31;;;4.45;100.00
60371;BME280;48550;40.588;49.684;2023-01-27T02:56:08;102854.72;;;4.49;100.00
60371;BME280;48550;40.588;49.684;2023-01-27T02:58:34;102853.06;;;4.48;100.00
60371;BME280;48550;40.588;49.684;2023-01-27T03:01:00;102856.41;;;4.50;100.00
60371;BME280;48550;40.588;49.684;2023-01-27T03:03:25;102853.06;;;4.48;100.00
60371;BME280;48550;40.588;49.684;2023-01-27T03:05:51;102858.09;;;4.51;100.00
60371;BME280;48550;40.588;49.684;2023-01-27T03:08:18;102856.97;;;4.54;100.00
60371;BME280;48550;40.588;49.684;2023-01-27T03:10:48;102853.47;;;4.53;100.00
60371;BME280;48550;40.588;49.684;2023-01-27T03:13:14;102856.97;;;4.54;100.00
60371;BME280;48550;40.588;49.684;2023-01-27T03:15:39;102855.84;;;4.56;100.00
60371;BME280;48550;40.588;49.684;2023-01-27T03:18:23;102862.44;;;4.52;100.00
60371;BME280;48550;40.588;49.684;2023-01-27T03:20:49;102869.72;;;4.50;100.00
60371;BME280;48550;40.588;49.684;2023-01-27T03:23:17;102880.34;;;4.50;100.00
60371;BME280;48550;40.588;49.684;2023-01-27T03:25:45;102877.97;;;4.47;100.00
60371;BME280;48550;40.588;49.684;2023-01-27T03:28:11;102883.84;;;4.51;100.00
60371;BME280;48550;40.588;49.684;2023-01-27T03:30:38;102877.50;;;4.42;100.00
60371;BME280;48550;40.588;49.684;2023-01-27T03:33:05;102877.22;;;4.45;100.00
60371;BME280;48550;40.588;49.684;2023-01-27T03:35:34;102882.03;;;4.51;100.00
60371;BME280;48550;40.588;49.684;2023-01-27T03:38:09;102872.38;;;4.50;100.00
60371;BME280;48550;40.588;49.684;2023-01-27T03:40:55;102865.94;;;4.53;100.00
60371;BME280;48550;40.588;49.684;2023-01-27T03:43:39;102869.84;;;4.58;100.00
60371;BME280;48550;40.588;49.684;2023-01-27T03:46:22;102880.19;;;4.61;100.00
60371;BME280;48550;40.588;49.684;2023-01-27T03:48:50;102870.53;;;4.60;100.00
60371;BME280;48550;40.588;49.684;2023-01-27T03:51:18;102878.66;;;4.59;100.00
60371;BME280;48550;40.588;49.684;2023-01-27T03:53:44;102866.75;;;4.53;100.00
60371;BME280;48550;40.588;49.684;2023-01-27T03:56:10;102873.06;;;4.52;100.00
60371;BME280;48550;40.588;49.684;2023-01-27T03:58:37;102872.09;;;4.53;100.00
60371;BME280;48550;40.588;49.684;2023-01-27T04:03:32;102867.88;;;4.51;100.00
60371;BME280;48550;40.588;49.684;2023-01-27T04:06:19;102870.38;;;4.42;100.00
60371;BME280;48550;40.588;49.684;2023-01-27T04:09:05;102878.22;;;4.44;100.00
60371;BME280;48550;40.588;49.684;2023-01-27T04:11:31;102871.78;;;4.37;100.00
60371;BME280;48550;40.588;49.684;2023-01-27T04:14:15;102880.03;;;4.34;100.00
60371;BME280;48550;40.588;49.684;2023-01-27T04:16:41;102875.53;;;4.34;100.00
60371;BME280;48550;40.588;49.684;2023-01-27T04:19:09;102886.88;;;4.36;100.00
60371;BME280;48550;40.588;49.684;2023-01-27T04:21:35;102887.03;;;4.35;100.00
60371;BME280;48550;40.588;49.684;2023-01-27T04:24:01;102887.44;;;4.30;100.00
60371;BME280;48550;40.588;49.684;2023-01-27T04:26:29;102885.91;;;4.28;100.00
60371;BME280;48550;40.588;49.684;2023-01-27T04:29:02;102886.03;;;4.26;100.00
60371;BME280;48550;40.588;49.684;2023-01-27T04:31:28;102883.94;;;4.30;100.00
60371;BME280;48550;40.588;49.684;2023-01-27T04:33:55;102887.44;;;4.40;100.00
60371;BME280;48550;40.588;49.684;2023-01-27T04:36:20;102884.13;;;4.57;100.00
60371;BME280;48550;40.588;49.684;2023-01-27T04:38:46;102878.50;;;4.70;100.00
60371;BME280;48550;40.588;49.684;2023-01-27T04:41:12;102895.31;;;4.80;100.00
60371;BME280;48550;40.588;49.684;2023-01-27T04:43:37;102890.69;;;4.82;100.00
60371;BME280;48550;40.588;49.684;2023-01-27T04:46:03;102895.03;;;4.83;100.00
60371;BME280;48550;40.588;49.684;2023-01-27T04:48:29;102889.41;;;4.96;100.00
60371;BME280;48550;40.588;49.684;2023-01-27T04:50:55;102902.50;;;5.36;100.00
60371;BME280;48550;40.588;49.684;2023-01-27T04:53:20;102896.25;;;5.08;100.00
60371;BME280;48550;40.588;49.684;2023-01-27T04:55:48;102908.69;;;5.17;100.00
60371;BME280;48550;40.588;49.684;2023-01-27T04:58:15;102905.13;;;5.46;100.00
60371;BME280;48550;40.588;49.684;2023-01-27T05:00:43;102907.38;;;6.32;100.00
60371;BME280;48550;40.588;49.684;2023-01-27T05:03:10;102903.34;;;6.46;100.00
60371;BME280;48550;40.588;49.684;2023-01-27T05:05:36;102909.78;;;7.41;100.00
60371;BME280;48550;40.588;49.684;2023-01-27T05:08:06;102901.91;;;8.07;100.00
60371;BME280;48550;40.588;49.684;2023-01-27T05:10:32;102903.50;;;9.95;100.00
60371;BME280;48550;40.588;49.684;2023-01-27T05:12:58;102907.53;;;10.99;78.15
60371;BME280;48550;40.588;49.684;2023-01-27T05:15:24;102901.56;;;11.70;66.71
60371;BME280;48550;40.588;49.684;2023-01-27T05:17:50;102902.03;;;11.89;65.24
60371;BME280;48550;40.588;49.684;2023-01-27T05:20:16;102906.25;;;11.91;58.65
60371;BME280;48550;40.588;49.684;2023-01-27T05:22:42;102905.84;;;12.30;56.12
60371;BME280;48550;40.588;49.684;2023-01-27T05:25:08;102903.75;;;12.90;52.66
60371;BME280;48550;40.588;49.684;2023-01-27T05:27:34;102902.81;;;13.04;50.70
60371;BME280;48550;40.588;49.684;2023-01-27T05:30:00;102907.63;;;13.09;48.51
60371;BME280;48550;40.588;49.684;2023-01-27T05:32:26;102896.94;;;13.43;48.90
60371;BME280;48550;40.588;49.684;2023-01-27T05:34:52;102897.41;;;14.01;46.96
60371;BME280;48550;40.588;49.684;2023-01-27T05:37:17;102904.41;;;12.92;47.18
60371;BME280;48550;40.588;49.684;2023-01-27T05:39:43;102902.13;;;12.10;50.79
60371;BME280;48550;40.588;49.684;2023-01-27T05:42:09;102902.22;;;11.87;51.50
60371;BME280;48550;40.588;49.684;2023-01-27T05:44:35;102898.63;;;11.95;52.62
60371;BME280;48550;40.588;49.684;2023-01-27T05:47:00;102897.16;;;12.50;51.12
60371;BME280;48550;40.588;49.684;2023-01-27T05:49:26;102898.84;;;13.49;45.78
60371;BME280;48550;40.588;49.684;2023-01-27T05:51:52;102894.25;;;13.91;45.24
60371;BME280;48550;40.588;49.684;2023-01-27T05:54:18;102893.63;;;13.20;45.66
60371;BME280;48550;40.588;49.684;2023-01-27T05:56:43;102886.41;;;12.71;47.04
60371;BME280;48550;40.588;49.684;2023-01-27T05:59:10;102885.72;;;11.90;48.17
60371;BME280;48550;40.588;49.684;2023-01-27T06:01:36;102888.13;;;11.56;49.18
60371;BME280;48550;40.588;49.684;2023-01-27T06:04:02;102880.50;;;11.74;49.58
60371;BME280;48550;40.588;49.684;2023-01-27T06:06:29;102887.03;;;12.73;48.53
60371;BME280;48550;40.588;49.684;2023-01-27T06:08:56;102881.38;;;13.93;44.68
60371;BME280;48550;40.588;49.684;2023-01-27T06:11:22;102882.69;;;13.56;43.78
60371;BME280;48550;40.588;49.684;2023-01-27T06:13:50;102883.69;;;13.96;44.71
60371;BME280;48550;40.588;49.684;2023-01-27T06:16:18;102880.81;;;14.04;42.87
60371;BME280;48550;40.588;49.684;2023-01-27T06:18:45;102878.25;;;14.57;47.11
60371;BME280;48550;40.588;49.684;2023-01-27T06:21:12;102881.16;;;15.28;57.35
60371;BME280;48550;40.588;49.684;2023-01-27T06:23:38;102870.00;;;14.04;43.57
60371;BME280;48550;40.588;49.684;2023-01-27T06:26:07;102868.41;;;13.34;43.91
60371;BME280;48550;40.588;49.684;2023-01-27T06:28:37;102868.00;;;13.65;47.46
60371;BME280;48550;40.588;49.684;2023-01-27T06:31:14;102872.78;;;14.30;46.49
60371;BME280;48550;40.588;49.684;2023-01-27T06:33:41;102861.19;;;15.16;42.30
60371;BME280;48550;40.588;49.684;2023-01-27T06:36:10;102860.38;;;14.62;40.54
60371;BME280;48550;40.588;49.684;2023-01-27T06:38:36;102853.03;;;13.28;42.86
60371;BME280;48550;40.588;49.684;2023-01-27T06:41:03;102844.25;;;13.47;43.97
60371;BME280;48550;40.588;49.684;2023-01-27T06:43:29;102856.38;;;13.71;43.70
60371;BME280;48550;40.588;49.684;2023-01-27T06:45:55;102853.94;;;14.50;41.63
60371;BME280;48550;40.588;49.684;2023-01-27T06:48:24;102851.44;;;14.62;41.00
60371;BME280;48550;40.588;49.684;2023-01-27T06:50:54;102849.97;;;15.12;40.00
60371;BME280;48550;40.588;49.684;2023-01-27T06:53:20;102848.56;;;15.81;39.02
60371;BME280;48550;40.588;49.684;2023-01-27T06:55:46;102847.94;;;14.88;39.01
60371;BME280;48550;40.588;49.684;2023-01-27T06:58:13;102843.50;;;14.41;39.96
60371;BME280;48550;40.588;49.684;2023-01-27T07:00:39;102838.97;;;14.48;39.82
60371;BME280;48550;40.588;49.684;2023-01-27T07:03:06;102830.44;;;14.77;39.59
60371;BME280;48550;40.588;49.684;2023-01-27T07:05:32;102826.09;;;12.72;43.26
60371;BME280;48550;40.588;49.684;2023-01-27T07:07:59;102817.38;;;11.40;45.29
60371;BME280;48550;40.588;49.684;2023-01-27T07:10:25;102819.59;;;10.32;48.21
60371;BME280;48550;40.588;49.684;2023-01-27T07:12:50;102811.63;;;9.62;51.29
60371;BME280;48550;40.588;49.684;2023-01-27T07:15:16;102809.94;;;9.69;53.89
60371;BME280;48550;40.588;49.684;2023-01-27T07:17:42;102812.56;;;9.38;55.03
60371;BME280;48550;40.588;49.684;2023-01-27T07:20:11;102805.31;;;9.47;56.54
60371;BME280;48550;40.588;49.684;2023-01-27T07:22:37;102798.66;;;9.35;54.79
60371;BME280;48550;40.588;49.684;2023-01-27T07:25:05;102801.28;;;9.12;54.53
60371;BME280;48550;40.588;49.684;2023-01-27T07:27:31;102792.97;;;8.74;53.09
60371;BME280;48550;40.588;49.684;2023-01-27T07:29:58;102785.47;;;8.53;53.73
60371;BME280;48550;40.588;49.684;2023-01-27T07:32:23;102790.47;;;8.56;54.50
60371;BME280;48550;40.588;49.684;2023-01-27T07:34:49;102779.03;;;8.87;53.17
60371;BME280;48550;40.588;49.684;2023-01-27T07:37:15;102779.59;;;8.50;53.55
60371;BME280;48550;40.588;49.684;2023-01-27T07:39:41;102775.91;;;8.18;54.04
60371;BME280;48550;40.588;49.684;2023-01-27T07:42:07;102773.56;;;8.32;52.39
60371;BME280;48550;40.588;49.684;2023-01-27T07:44:33;102764.06;;;8.45;52.39
60371;BME280;48550;40.588;49.684;2023-01-27T07:46:59;102764.72;;;8.47;51.26
60371;BME280;48550;40.588;49.684;2023-01-27T07:49:25;102758.03;;;8.19;53.40
60371;BME280;48550;40.588;49.684;2023-01-27T07:51:51;102756.22;;;8.36;52.08
60371;BME280;48550;40.588;49.684;2023-01-27T07:54:17;102766.03;;;8.19;51.69
60371;BME280;48550;40.588;49.684;2023-01-27T07:56:42;102758.81;;;8.11;53.06
60371;BME280;48550;40.588;49.684;2023-01-27T07:59:09;102753.31;;;8.13;53.18
60371;BME280;48550;40.588;49.684;2023-01-27T08:01:36;102749.78;;;8.04;52.24
60371;BME280;48550;40.588;49.684;2023-01-27T08:04:01;102744.78;;;7.93;52.89
60371;BME280;48550;40.588;49.684;2023-01-27T08:06:27;102737.94;;;8.07;53.37
60371;BME280;48550;40.588;49.684;2023-01-27T08:08:53;102735.09;;;8.08;52.83
60371;BME280;48550;40.588;49.684;2023-01-27T08:11:19;102726.91;;;8.26;53.04
60371;BME280;48550;40.588;49.684;2023-01-27T08:13:44;102718.59;;;8.37;52.68
60371;BME280;48550;40.588;49.684;2023-01-27T08:16:12;102719.38;;;8.05;53.11
60371;BME280;48550;40.588;49.684;2023-01-27T08:18:38;102710.88;;;8.18;52.79
60371;BME280;48550;40.588;49.684;2023-01-27T08:21:06;102705.03;;;8.22;53.34
60371;BME280;48550;40.588;49.684;2023-01-27T08:23:33;102697.66;;;8.00;52.76
60371;BME280;48550;40.588;49.684;2023-01-27T08:26:00;102689.97;;;8.05;53.89
60371;BME280;48550;40.588;49.684;2023-01-27T08:28:28;102683.44;;;8.24;53.58
60371;BME280;48550;40.588;49.684;2023-01-27T08:33:34;102676.25;;;8.49;52.76
60371;BME280;48550;40.588;49.684;2023-01-27T08:36:05;102659.53;;;8.47;51.98
60371;BME280;48550;40.588;49.684;2023-01-27T08:38:31;102659.31;;;8.65;52.61
60371;BME280;48550;40.588;49.684;2023-01-27T08:41:03;102653.34;;;8.46;53.35
60371;BME280;48550;40.588;49.684;2023-01-27T08:43:29;102649.97;;;8.52;52.28
60371;BME280;48550;40.588;49.684;2023-01-27T08:45:54;102643.75;;;8.60;52.49
60371;BME280;48550;40.588;49.684;2023-01-27T08:48:21;102629.69;;;8.66;52.42
60371;BME280;48550;40.588;49.684;2023-01-27T08:50:47;102632.19;;;8.68;52.37
60371;BME280;48550;40.588;49.684;2023-01-27T08:53:14;102625.59;;;8.31;53.34
60371;BME280;48550;40.588;49.684;2023-01-27T08:55:40;102620.75;;;8.43;53.22
60371;BME280;48550;40.588;49.684;2023-01-27T08:58:06;102620.25;;;8.07;53.87
60371;BME280;48550;40.588;49.684;2023-01-27T09:00:31;102613.22;;;8.14;54.72
60371;BME280;48550;40.588;49.684;2023-01-27T09:02:57;102616.44;;;8.01;54.07
60371;BME280;48550;40.588;49.684;2023-01-27T09:05:23;102605.56;;;8.19;55.57
60371;BME280;48550;40.588;49.684;2023-01-27T09:07:49;102603.53;;;8.29;54.63
60371;BME280;48550;40.588;49.684;2023-01-27T09:10:15;102595.88;;;8.18;56.01
60371;BME280;48550;40.588;49.684;2023-01-27T09:12:42;102600.50;;;8.32;55.53
60371;BME280;48550;40.588;49.684;2023-01-27T09:15:09;102586.59;;;8.53;56.52
60371;BME280;48550;40.588;49.684;2023-01-27T09:17:35;102582.66;;;8.72;52.89
60371;BME280;48550;40.588;49.684;2023-01-27T09:20:01;102580.31;;;8.69;54.05
60371;BME280;48550;40.588;49.684;2023-01-27T09:22:27;102579.22;;;8.55;54.40
60371;BME280;48550;40.588;49.684;2023-01-27T09:24:52;102568.28;;;8.65;54.07
60371;BME280;48550;40.588;49.684;2023-01-27T09:27:18;102570.72;;;8.43;53.75
60371;BME280;48550;40.588;49.684;2023-01-27T09:29:44;102555.16;;;8.47;54.43
60371;BME280;48550;40.588;49.684;2023-01-27T09:32:09;102554.03;;;8.25;54.44
60371;BME280;48550;40.588;49.684;2023-01-27T09:34:37;102556.41;;;8.12;55.31
60371;BME280;48550;40.588;49.684;2023-01-27T09:37:08;102555.75;;;8.10;56.21
60371;BME280;48550;40.588;49.684;2023-01-27T09:39:39;102536.84;;;8.19;56.33
60371;BME280;48550;40.588;49.684;2023-01-27T09:50:19;102513.25;;;8.15;55.15
60371;BME280;48550;40.588;49.684;2023-01-27T09:53:04;102505.19;;;8.31;55.17
60371;BME280;48550;40.588;49.684;2023-01-27T10:15:13;102470.91;;;8.43;52.83
60371;BME280;48550;40.588;49.684;2023-01-27T10:17:47;102471.81;;;8.58;55.60
60371;BME280;48550;40.588;49.684;2023-01-27T10:28:38;102463.09;;;8.33;53.82
60371;BME280;48550;40.588;49.684;2023-01-27T10:31:19;102468.22;;;8.43;54.81
60371;BME280;48550;40.588;49.684;2023-01-27T10:33:56;102460.94;;;8.59;53.47
60371;BME280;48550;40.588;49.684;2023-01-27T10:37:09;102463.78;;;8.58;53.38
60371;BME280;48550;40.588;49.684;2023-01-27T10:39:49;102447.28;;;8.46;52.79
60371;BME280;48550;40.588;49.684;2023-01-27T10:42:35;102451.03;;;8.37;53.83
60371;BME280;48550;40.588;49.684;2023-01-27T10:45:27;102449.78;;;8.48;53.61
60371;BME280;48550;40.588;49.684;2023-01-27T10:53:04;102444.13;;;8.43;54.67
60371;BME280;48550;40.588;49.684;2023-01-27T10:58:44;102439.94;;;8.48;55.05
60371;BME280;48550;40.588;49.684;2023-01-27T11:01:13;102445.59;;;8.53;52.84
60371;BME280;48550;40.588;49.684;2023-01-27T11:03:43;102438.69;;;8.59;53.37
60371;BME280;48550;40.588;49.684;2023-01-27T11:06:19;102438.16;;;8.64;52.92
60371;BME280;48550;40.588;49.684;2023-01-27T11:08:49;102439.50;;;8.59;51.99
60371;BME280;48550;40.588;49.684;2023-01-27T11:11:18;102443.97;;;8.67;52.27
60371;BME280;48550;40.588;49.684;2023-01-27T11:14:20;102449.38;;;8.36;53.22
60371;BME280;48550;40.588;49.684;2023-01-27T11:16:51;102451.41;;;8.26;53.05
60371;BME280;48550;40.588;49.684;2023-01-27T11:19:41;102460.81;;;8.06;53.06
60371;BME280;48550;40.588;49.684;2023-01-27T11:22:20;102448.25;;;8.14;53.40
60371;BME280;48550;40.588;49.684;2023-01-27T11:25:28;102455.13;;;8.09;54.19
60371;BME280;48550;40.588;49.684;2023-01-27T11:28:19;102453.28;;;8.09;54.53
60371;BME280;48550;40.588;49.684;2023-01-27T11:31:10;102450.75;;;8.16;54.70
60371;BME280;48550;40.588;49.684;2023-01-27T11:34:03;102456.78;;;8.10;53.84
60371;BME280;48550;40.588;49.684;2023-01-27T11:36:32;102464.66;;;8.03;53.39
60371;BME280;48550;40.588;49.684;2023-01-27T11:38:58;102462.16;;;8.02;53.24
60371;BME280;48550;40.588;49.684;2023-01-27T11:41:26;102447.97;;;8.01;53.42
60371;BME280;48550;40.588;49.684;2023-01-27T11:43:52;102459.31;;;8.03;53.58
60371;BME280;48550;40.588;49.684;2023-01-27T11:46:21;102457.47;;;8.04;54.40
60371;BME280;48550;40.588;49.684;2023-01-27T11:48:54;102446.25;;;8.08;54.56
60371;BME280;48550;40.588;49.684;2023-01-27T11:51:37;102452.34;;;7.94;53.79
60371;BME280;48550;40.588;49.684;2023-01-27T11:54:24;102451.88;;;7.82;54.64
60371;BME280;48550;40.588;49.684;2023-01-27T11:56:52;102455.41;;;7.75;54.97
60371;BME280;48550;40.588;49.684;2023-01-27T11:59:36;102446.56;;;7.74;55.28
60371;BME280;48550;40.588;49.684;2023-01-27T12:07:04;102447.53;;;7.81;55.67
60371;BME280;48550;40.588;49.684;2023-01-27T12:14:51;102453.41;;;7.77;55.28
60371;BME280;48550;40.588;49.684;2023-01-27T12:17:42;102444.25;;;7.63;55.31
60371;BME280;48550;40.588;49.684;2023-01-27T12:20:36;102442.06;;;7.67;55.68
60371;BME280;48550;40.588;49.684;2023-01-27T12:23:27;102441.06;;;7.68;55.20
60371;BME280;48550;40.588;49.684;2023-01-27T12:25:57;102448.44;;;7.57;54.82
60371;BME280;48550;40.588;49.684;2023-01-27T12:28:33;102433.75;;;7.53;55.75
60371;BME280;48550;40.588;49.684;2023-01-27T12:31:41;102433.44;;;7.48;55.96
60371;BME280;48550;40.588;49.684;2023-01-27T12:34:06;102426.25;;;7.49;55.95
60371;BME280;48550;40.588;49.684;2023-01-27T12:36:38;102432.28;;;7.51;55.94
60371;BME280;48550;40.588;49.684;2023-01-27T12:39:05;102418.56;;;7.54;55.92
60371;BME280;48550;40.588;49.684;2023-01-27T12:41:48;102428.28;;;7.47;55.97
60371;BME280;48550;40.588;49.684;2023-01-27T12:44:16;102423.56;;;7.41;56.05
60371;BME280;48550;40.588;49.684;2023-01-27T12:47:12;102412.06;;;7.40;56.62
60371;BME280;48550;40.588;49.684;2023-01-27T12:49:40;102415.25;;;7.36;56.78
60371;BME280;48550;40.588;49.684;2023-01-27T12:52:17;102423.75;;;7.31;56.70
60371;BME280;48550;40.588;49.684;2023-01-27T12:54:43;102424.94;;;7.28;56.97
60371;BME280;48550;40.588;49.684;2023-01-27T12:57:13;102424.59;;;7.31;58.08
60371;BME280;48550;40.588;49.684;2023-01-27T12:59:59;102418.59;;;7.21;57.98
60371;BME280;48550;40.588;49.684;2023-01-27T13:02:29;102420.75;;;7.26;58.43
60371;BME280;48550;40.588;49.684;2023-01-27T13:05:00;102419.78;;;7.19;57.41
60371;BME280;48550;40.588;49.684;2023-01-27T13:07:29;102417.59;;;7.14;57.59
60371;BME280;48550;40.588;49.684;2023-01-27T13:10:23;102420.13;;;7.08;58.19
60371;BME280;48550;40.588;49.684;2023-01-27T13:12:53;102418.94;;;7.10;58.49
60371;BME280;48550;40.588;49.684;2023-01-27T13:15:21;102418.97;;;7.02;58.06
60371;BME280;48550;40.588;49.684;2023-01-27T13:17:54;102417.47;;;6.91;59.02
60371;BME280;48550;40.588;49.684;2023-01-27T13:20:48;102426.13;;;6.85;60.87
60371;BME280;48550;40.588;49.684;2023-01-27T13:23:21;102426.31;;;6.84;64.19
60371;BME280;48550;40.588;49.684;2023-01-27T13:28:30;102431.59;;;6.67;66.99
60371;BME280;48550;40.588;49.684;2023-01-27T13:31:02;102437.59;;;6.61;68.56
60371;BME280;48550;40.588;49.684;2023-01-27T13:33:42;102437.56;;;6.53;70.83
60371;BME280;48550;40.588;49.684;2023-01-27T13:42:04;102434.34;;;6.25;73.05
60371;BME280;48550;40.588;49.684;2023-01-27T13:44:38;102432.81;;;6.15;73.86
60371;BME280;48550;40.588;49.684;2023-01-27T13:47:15;102435.28;;;6.08;75.31
60371;BME280;48550;40.588;49.684;2023-01-27T13:49:47;102437.09;;;5.99;76.14
60371;BME280;48550;40.588;49.684;2023-01-27T13:52:14;102436.03;;;5.92;78.12
60371;BME280;48550;40.588;49.684;2023-01-27T13:54:39;102447.97;;;5.88;79.55
60371;BME280;48550;40.588;49.684;2023-01-27T13:58:11;102446.16;;;5.89;82.27
60371;BME280;48550;40.588;49.684;2023-01-27T14:00:21;102444.28;;;5.81;80.48
60371;BME280;48550;40.588;49.684;2023-01-27T14:11:28;102437.25;;;5.72;88.97
60371;BME280;48550;40.588;49.684;2023-01-27T14:16:47;102447.19;;;5.62;89.40
60371;BME280;48550;40.588;49.684;2023-01-27T14:25:03;102448.28;;;5.51;93.36
60371;BME280;48550;40.588;49.684;2023-01-27T14:27:45;102451.47;;;5.55;95.62
60371;BME280;48550;40.588;49.684;2023-01-27T14:30:40;102467.53;;;5.45;96.86
60371;BME280;48550;40.588;49.684;2023-01-27T14:38:46;102466.34;;;5.39;100.00
60371;BME280;48550;40.588;49.684;2023-01-27T14:47:20;102456.63;;;5.30;100.00
60371;BME280;48550;40.588;49.684;2023-01-27T14:52:36;102464.25;;;5.25;100.00